createdAt,value
2022-09-17T00:01:29.407Z,4.40
2022-09-17T00:04:17.280Z,4.45
2022-09-17T00:07:05.272Z,4.55
2022-09-17T00:09:53.001Z,4.60
2022-09-17T00:12:41.354Z,3.95
2022-09-17T00:15:29.363Z,4.18
2022-09-17T00:18:17.218Z,3.97
2022-09-17T00:21:05.090Z,3.50
2022-09-17T00:24:02.554Z,3.80
2022-09-17T00:26:50.788Z,3.92
2022-09-17T00:29:38.546Z,4.07
2022-09-17T00:32:27.377Z,4.30
2022-09-17T00:35:15.082Z,3.78
2022-09-17T00:38:02.922Z,3.97
2022-09-17T00:40:50.760Z,3.40
2022-09-17T00:43:47.256Z,3.50
2022-09-17T00:46:36.299Z,3.28
2022-09-17T00:49:29.716Z,3.97
2022-09-17T00:52:24.547Z,3.50
2022-09-17T00:55:24.946Z,4.47
2022-09-17T00:58:15.967Z,3.70
2022-09-17T01:01:04.448Z,3.17
2022-09-17T01:03:52.257Z,2.90
2022-09-17T01:06:51.641Z,3.20
2022-09-17T01:10:06.414Z,3.70
2022-09-17T01:16:17.598Z,4.75
2022-09-17T01:19:45.579Z,4.90
2022-09-17T01:23:09.270Z,4.55
2022-09-17T01:26:02.535Z,4.05
2022-09-17T01:29:20.081Z,3.97
2022-09-17T01:32:28.357Z,3.90
2022-09-17T01:35:35.943Z,4.18
2022-09-17T01:38:56.704Z,4.07
2022-09-17T01:42:14.287Z,4.80
2022-09-17T01:45:22.401Z,3.80
2022-09-17T01:48:20.852Z,4.07
2022-09-17T01:51:13.218Z,3.95
2022-09-17T01:54:11.131Z,4.60
2022-09-17T01:57:09.164Z,4.00
2022-09-17T02:00:12.009Z,3.90
2022-09-17T02:03:24.419Z,3.92
2022-09-17T02:06:21.923Z,3.92
2022-09-17T02:09:22.365Z,3.95
2022-09-17T02:12:16.696Z,3.85
2022-09-17T02:15:11.344Z,3.90
2022-09-17T02:18:27.759Z,4.50
2022-09-17T02:21:30.636Z,4.60
2022-09-17T02:24:41.663Z,3.63
2022-09-17T02:28:11.395Z,3.75
2022-09-17T02:30:59.434Z,4.13
2022-09-17T02:33:53.982Z,3.75
2022-09-17T02:36:41.715Z,4.05
2022-09-17T02:39:29.731Z,4.03
2022-09-17T02:43:02.625Z,3.80
2022-09-17T02:46:27.374Z,4.13
2022-09-17T02:49:50.073Z,4.40
2022-09-17T02:53:29.424Z,4.40
2022-09-17T02:56:43.138Z,4.15
2022-09-17T02:59:59.227Z,3.88
2022-09-17T03:03:23.480Z,3.92
2022-09-17T03:06:11.923Z,3.57
2022-09-17T03:08:59.667Z,3.80
2022-09-17T03:11:47.518Z,4.20
2022-09-17T03:14:35.275Z,3.97
2022-09-17T03:17:23.001Z,3.22
2022-09-17T03:20:10.729Z,3.45
2022-09-17T03:22:58.495Z,3.28
2022-09-17T03:25:47.010Z,3.20
2022-09-17T03:28:34.778Z,3.13
2022-09-17T03:31:22.712Z,3.20
2022-09-17T03:34:10.573Z,3.63
2022-09-17T03:36:58.273Z,3.88
2022-09-17T03:39:46.024Z,3.53
2022-09-17T03:42:33.755Z,3.50
2022-09-17T03:45:21.531Z,2.92
2022-09-17T03:48:09.448Z,3.58
2022-09-17T03:50:57.213Z,3.00
2022-09-17T03:53:45.007Z,2.75
2022-09-17T03:56:33.306Z,2.90
2022-09-17T03:59:21.057Z,3.42
2022-09-17T04:02:08.895Z,3.20
2022-09-17T04:04:56.850Z,2.92
2022-09-17T04:07:44.580Z,2.65
2022-09-17T04:10:32.566Z,2.55
2022-09-17T04:13:21.310Z,2.95
2022-09-17T04:16:09.108Z,2.50
2022-09-17T04:18:56.981Z,2.00
2022-09-17T04:21:44.793Z,2.72
2022-09-17T04:24:32.511Z,2.70
2022-09-17T04:27:20.286Z,2.28
2022-09-17T04:30:12.120Z,2.38
2022-09-17T04:32:59.836Z,2.65
2022-09-17T04:35:48.057Z,2.70
2022-09-17T04:38:35.869Z,2.50
2022-09-17T04:41:23.674Z,2.80
2022-09-17T04:44:11.426Z,3.17
2022-09-17T04:46:59.273Z,2.90
2022-09-17T04:49:47.082Z,2.60
2022-09-17T04:52:34.827Z,2.80
2022-09-17T04:55:22.659Z,2.83
2022-09-17T04:58:11.077Z,2.92
2022-09-17T05:00:58.853Z,2.67
2022-09-17T05:03:46.654Z,2.67
2022-09-17T05:06:34.388Z,2.80
2022-09-17T05:09:22.106Z,2.92
2022-09-17T05:12:09.843Z,3.58
2022-09-17T05:14:57.583Z,3.08
2022-09-17T05:17:46.064Z,2.65
2022-09-17T05:20:34.065Z,2.70
2022-09-17T05:23:21.965Z,2.60
2022-09-17T05:26:10.073Z,3.03
2022-09-17T05:28:57.897Z,2.75
2022-09-17T05:31:45.942Z,2.97
2022-09-17T05:34:33.972Z,3.47
2022-09-17T05:37:21.714Z,2.92
2022-09-17T05:40:10.335Z,3.45
2022-09-17T05:43:02.839Z,3.72
2022-09-17T05:45:50.752Z,3.70
2022-09-17T05:48:38.505Z,4.28
2022-09-17T05:51:26.266Z,4.57
2022-09-17T05:54:14.039Z,4.63
2022-09-17T05:57:01.833Z,4.03
2022-09-17T05:59:49.633Z,4.82
2022-09-17T06:02:37.494Z,5.45
2022-09-17T06:05:25.526Z,5.60
2022-09-17T06:08:13.306Z,5.30
2022-09-17T06:11:05.495Z,4.80
2022-09-17T06:13:54.755Z,5.53
2022-09-17T06:16:42.802Z,5.47
2022-09-17T06:19:30.570Z,5.25
2022-09-17T06:22:20.230Z,5.72
2022-09-17T06:25:08.272Z,5.75
2022-09-17T06:27:56.022Z,5.78
2022-09-17T06:30:43.754Z,5.82
2022-09-17T06:33:32.548Z,5.82
2022-09-17T06:36:20.272Z,6.35
2022-09-17T06:39:08.272Z,6.30
2022-09-17T06:41:56.005Z,6.18
2022-09-17T06:44:43.854Z,6.22
2022-09-17T06:47:31.590Z,5.60
2022-09-17T06:50:19.662Z,5.50
2022-09-17T06:53:07.449Z,4.40
2022-09-17T06:56:02.309Z,5.07
2022-09-17T06:58:54.270Z,4.40
2022-09-17T07:01:42.819Z,5.05
2022-09-17T07:04:30.636Z,4.55
2022-09-17T07:07:18.420Z,4.63
2022-09-17T07:10:06.921Z,4.53
2022-09-17T07:12:54.869Z,4.75
2022-09-17T07:15:42.680Z,5.07
2022-09-17T07:18:30.667Z,4.38
2022-09-17T07:21:18.436Z,4.72
2022-09-17T07:24:06.493Z,4.38
2022-09-17T07:26:54.277Z,5.13
2022-09-17T07:29:42.130Z,4.63
2022-09-17T07:32:31.365Z,5.22
2022-09-17T07:35:19.126Z,4.40
2022-09-17T07:38:06.892Z,5.55
2022-09-17T07:40:59.173Z,4.10
2022-09-17T07:43:46.985Z,5.22
2022-09-17T07:46:34.829Z,5.05
2022-09-17T07:49:22.676Z,4.25
2022-09-17T07:52:10.752Z,4.40
2022-09-17T07:54:58.546Z,5.10
2022-09-17T07:57:51.638Z,3.58
2022-09-17T08:00:43.096Z,3.40
2022-09-17T08:03:31.251Z,4.18
2022-09-17T08:06:28.323Z,3.80
2022-09-17T08:09:18.507Z,4.22
2022-09-17T08:12:06.630Z,3.38
2022-09-17T08:14:54.363Z,4.25
2022-09-17T08:17:46.245Z,3.53
2022-09-17T08:20:34.308Z,3.70
2022-09-17T08:23:22.189Z,4.00
2022-09-17T08:26:27.960Z,3.78
2022-09-17T08:29:16.059Z,3.25
2022-09-17T08:32:03.882Z,3.72
2022-09-17T08:34:57.974Z,2.67
2022-09-17T08:37:47.342Z,3.08
2022-09-17T08:40:52.700Z,3.30
2022-09-17T08:44:07.487Z,2.92
2022-09-17T08:50:00.126Z,2.65
2022-09-17T08:53:12.955Z,2.55
2022-09-17T08:56:09.506Z,2.88
2022-09-17T08:59:12.036Z,3.03
2022-09-17T09:02:21.503Z,2.90
2022-09-17T09:05:26.765Z,2.88
2022-09-17T09:08:30.507Z,2.38
2022-09-17T09:11:27.533Z,3.20
2022-09-17T09:14:39.415Z,2.80
2022-09-17T09:17:35.846Z,2.97
2022-09-17T09:21:12.415Z,2.40
2022-09-17T09:24:26.699Z,2.38
2022-09-17T09:27:28.483Z,2.85
2022-09-17T09:30:23.465Z,2.38
2022-09-17T09:33:19.499Z,2.55
2022-09-17T09:36:14.314Z,2.58
